sensor_id;sensor_type;location;lat;lon;timestamp;P1;durP1;ratioP1;P2;durP2;ratioP2
21780;SDS011;52576;53.614;9.894;2023-03-23T00:01:23;11.93;;;7.43;;
21780;SDS011;52576;53.614;9.894;2023-03-23T00:03:28;16.48;;;8.40;;
21780;SDS011;52576;53.614;9.894;2023-03-23T00:05:32;13.40;;;8.88;;
21780;SDS011;52576;53.614;9.894;2023-03-23T00:07:37;14.00;;;8.73;;
21780;SDS011;52576;53.614;9.894;2023-03-23T00:09:45;12.48;;;9.07;;
21780;SDS011;52576;53.614;9.894;2023-03-23T00:11:48;16.05;;;9.63;;
21780;SDS011;52576;53.614;9.894;2023-03-23T00:13:51;13.82;;;9.80;;
21780;SDS011;52576;53.614;9.894;2023-03-23T00:15:54;16.27;;;10.15;;
21780;SDS011;52576;53.614;9.894;2023-03-23T00:17:57;18.23;;;10.70;;
21780;SDS011;52576;53.614;9.894;2023-03-23T00:20:05;15.95;;;10.13;;
21780;SDS011;52576;53.614;9.894;2023-03-23T00:22:10;17.92;;;11.43;;
21780;SDS011;52576;53.614;9.894;2023-03-23T00:24:13;17.20;;;11.15;;
21780;SDS011;52576;53.614;9.894;2023-03-23T00:26:17;15.75;;;11.20;;
21780;SDS011;52576;53.614;9.894;2023-03-23T00:28:20;18.17;;;11.52;;
21780;SDS011;52576;53.614;9.894;2023-03-23T00:30:25;16.75;;;11.68;;
21780;SDS011;52576;53.614;9.894;2023-03-23T00:32:27;19.80;;;11.68;;
21780;SDS011;52576;53.614;9.894;2023-03-23T00:34:30;17.67;;;12.23;;
21780;SDS011;52576;53.614;9.894;2023-03-23T00:36:35;17.52;;;13.27;;
21780;SDS011;52576;53.614;9.894;2023-03-23T00:38:46;15.77;;;12.43;;
21780;SDS011;52576;53.614;9.894;2023-03-23T00:40:48;18.98;;;13.30;;
21780;SDS011;52576;53.614;9.894;2023-03-23T00:42:51;22.17;;;13.52;;
21780;SDS011;52576;53.614;9.894;2023-03-23T00:44:53;16.70;;;13.82;;
21780;SDS011;52576;53.614;9.894;2023-03-23T00:47:01;17.98;;;14.75;;
21780;SDS011;52576;53.614;9.894;2023-03-23T00:49:05;19.48;;;14.48;;
21780;SDS011;52576;53.614;9.894;2023-03-23T00:51:07;19.23;;;14.52;;
21780;SDS011;52576;53.614;9.894;2023-03-23T00:53:12;18.83;;;14.55;;
21780;SDS011;52576;53.614;9.894;2023-03-23T00:55:15;17.38;;;14.60;;
21780;SDS011;52576;53.614;9.894;2023-03-23T00:57:17;20.10;;;15.80;;
21780;SDS011;52576;53.614;9.894;2023-03-23T00:59:20;20.27;;;14.85;;
21780;SDS011;52576;53.614;9.894;2023-03-23T01:01:25;17.98;;;14.27;;
21780;SDS011;52576;53.614;9.894;2023-03-23T01:03:27;21.40;;;15.52;;
21780;SDS011;52576;53.614;9.894;2023-03-23T01:05:34;18.95;;;15.00;;
21780;SDS011;52576;53.614;9.894;2023-03-23T01:07:36;21.13;;;15.27;;
21780;SDS011;52576;53.614;9.894;2023-03-23T01:09:40;17.33;;;15.15;;
21780;SDS011;52576;53.614;9.894;2023-03-23T01:11:46;19.80;;;15.18;;
21780;SDS011;52576;53.614;9.894;2023-03-23T01:13:50;17.75;;;15.23;;
21780;SDS011;52576;53.614;9.894;2023-03-23T01:15:54;20.50;;;15.52;;
21780;SDS011;52576;53.614;9.894;2023-03-23T01:17:57;25.77;;;16.30;;
21780;SDS011;52576;53.614;9.894;2023-03-23T01:19:59;22.67;;;15.85;;
21780;SDS011;52576;53.614;9.894;2023-03-23T01:22:02;20.73;;;15.18;;
21780;SDS011;52576;53.614;9.894;2023-03-23T01:24:04;19.70;;;15.25;;
21780;SDS011;52576;53.614;9.894;2023-03-23T01:26:09;20.08;;;15.95;;
21780;SDS011;52576;53.614;9.894;2023-03-23T01:28:13;19.42;;;16.17;;
21780;SDS011;52576;53.614;9.894;2023-03-23T01:30:16;21.38;;;15.45;;
21780;SDS011;52576;53.614;9.894;2023-03-23T01:32:18;20.65;;;15.90;;
21780;SDS011;52576;53.614;9.894;2023-03-23T01:34:21;20.15;;;16.38;;
21780;SDS011;52576;53.614;9.894;2023-03-23T01:36:24;21.90;;;16.13;;
21780;SDS011;52576;53.614;9.894;2023-03-23T01:38:33;22.75;;;16.48;;
21780;SDS011;52576;53.614;9.894;2023-03-23T01:40:37;19.42;;;15.10;;
21780;SDS011;52576;53.614;9.894;2023-03-23T01:42:41;20.65;;;15.80;;
21780;SDS011;52576;53.614;9.894;2023-03-23T01:47:28;22.05;;;16.08;;
21780;SDS011;52576;53.614;9.894;2023-03-23T01:49:31;23.92;;;16.73;;
21780;SDS011;52576;53.614;9.894;2023-03-23T01:51:38;20.48;;;16.73;;
21780;SDS011;52576;53.614;9.894;2023-03-23T01:53:43;20.92;;;16.30;;
21780;SDS011;52576;53.614;9.894;2023-03-23T01:55:48;22.23;;;17.15;;
21780;SDS011;52576;53.614;9.894;2023-03-23T01:57:55;22.42;;;16.83;;
21780;SDS011;52576;53.614;9.894;2023-03-23T01:59:59;24.20;;;17.63;;
21780;SDS011;52576;53.614;9.894;2023-03-23T02:02:14;22.88;;;17.52;;
21780;SDS011;52576;53.614;9.894;2023-03-23T02:04:18;22.38;;;16.85;;
21780;SDS011;52576;53.614;9.894;2023-03-23T02:06:22;23.55;;;16.48;;
21780;SDS011;52576;53.614;9.894;2023-03-23T02:08:41;24.45;;;17.55;;
21780;SDS011;52576;53.614;9.894;2023-03-23T02:10:46;22.10;;;17.35;;
21780;SDS011;52576;53.614;9.894;2023-03-23T02:12:48;22.88;;;16.33;;
21780;SDS011;52576;53.614;9.894;2023-03-23T02:14:53;23.52;;;17.42;;
21780;SDS011;52576;53.614;9.894;2023-03-23T02:16:56;22.35;;;16.73;;
21780;SDS011;52576;53.614;9.894;2023-03-23T02:19:10;21.58;;;16.35;;
21780;SDS011;52576;53.614;9.894;2023-03-23T02:21:51;21.92;;;16.15;;
21780;SDS011;52576;53.614;9.894;2023-03-23T02:24:10;21.65;;;15.52;;
21780;SDS011;52576;53.614;9.894;2023-03-23T02:26:29;21.42;;;16.13;;
21780;SDS011;52576;53.614;9.894;2023-03-23T02:31:29;20.23;;;15.73;;
21780;SDS011;52576;53.614;9.894;2023-03-23T02:33:45;19.70;;;14.73;;
21780;SDS011;52576;53.614;9.894;2023-03-23T02:35:52;19.83;;;15.32;;
21780;SDS011;52576;53.614;9.894;2023-03-23T02:37:59;22.75;;;15.02;;
21780;SDS011;52576;53.614;9.894;2023-03-23T02:40:06;19.75;;;14.90;;
21780;SDS011;52576;53.614;9.894;2023-03-23T02:42:13;19.85;;;14.52;;
21780;SDS011;52576;53.614;9.894;2023-03-23T02:44:18;19.73;;;14.55;;
21780;SDS011;52576;53.614;9.894;2023-03-23T02:46:22;18.48;;;14.32;;
21780;SDS011;52576;53.614;9.894;2023-03-23T02:48:28;18.90;;;14.70;;
21780;SDS011;52576;53.614;9.894;2023-03-23T02:50:33;17.20;;;13.98;;
21780;SDS011;52576;53.614;9.894;2023-03-23T02:52:39;18.70;;;14.43;;
21780;SDS011;52576;53.614;9.894;2023-03-23T02:54:44;19.83;;;14.27;;
21780;SDS011;52576;53.614;9.894;2023-03-23T02:56:49;18.70;;;14.02;;
21780;SDS011;52576;53.614;9.894;2023-03-23T02:58:57;17.92;;;13.85;;
21780;SDS011;52576;53.614;9.894;2023-03-23T03:01:12;20.33;;;14.65;;
21780;SDS011;52576;53.614;9.894;2023-03-23T03:03:18;17.17;;;13.88;;
21780;SDS011;52576;53.614;9.894;2023-03-23T03:05:26;16.92;;;13.90;;
21780;SDS011;52576;53.614;9.894;2023-03-23T03:07:41;17.92;;;14.15;;
21780;SDS011;52576;53.614;9.894;2023-03-23T03:09:52;23.67;;;13.80;;
21780;SDS011;52576;53.614;9.894;2023-03-23T03:12:02;20.35;;;14.00;;
21780;SDS011;52576;53.614;9.894;2023-03-23T03:14:10;16.50;;;13.68;;
21780;SDS011;52576;53.614;9.894;2023-03-23T03:16:23;18.63;;;14.20;;
21780;SDS011;52576;53.614;9.894;2023-03-23T03:18:30;18.23;;;13.70;;
21780;SDS011;52576;53.614;9.894;2023-03-23T03:20:40;17.30;;;13.70;;
21780;SDS011;52576;53.614;9.894;2023-03-23T03:22:48;20.75;;;14.25;;
21780;SDS011;52576;53.614;9.894;2023-03-23T03:24:55;19.10;;;14.50;;
21780;SDS011;52576;53.614;9.894;2023-03-23T03:27:00;16.52;;;14.20;;
21780;SDS011;52576;53.614;9.894;2023-03-23T03:29:15;16.42;;;13.85;;
21780;SDS011;52576;53.614;9.894;2023-03-23T03:31:23;20.63;;;14.20;;
21780;SDS011;52576;53.614;9.894;2023-03-23T03:33:30;19.40;;;13.68;;
21780;SDS011;52576;53.614;9.894;2023-03-23T03:35:35;17.70;;;14.15;;
21780;SDS011;52576;53.614;9.894;2023-03-23T03:37:39;19.88;;;13.27;;
21780;SDS011;52576;53.614;9.894;2023-03-23T03:39:43;18.90;;;14.50;;
21780;SDS011;52576;53.614;9.894;2023-03-23T03:41:46;16.65;;;14.52;;
21780;SDS011;52576;53.614;9.894;2023-03-23T03:43:49;17.23;;;14.05;;
21780;SDS011;52576;53.614;9.894;2023-03-23T03:45:51;17.45;;;14.20;;
21780;SDS011;52576;53.614;9.894;2023-03-23T03:47:53;19.10;;;14.13;;
21780;SDS011;52576;53.614;9.894;2023-03-23T03:49:56;18.60;;;13.75;;
21780;SDS011;52576;53.614;9.894;2023-03-23T03:51:59;19.58;;;14.48;;
21780;SDS011;52576;53.614;9.894;2023-03-23T03:54:10;16.60;;;13.30;;
21780;SDS011;52576;53.614;9.894;2023-03-23T03:56:14;18.45;;;13.60;;
21780;SDS011;52576;53.614;9.894;2023-03-23T03:58:24;17.80;;;13.75;;
21780;SDS011;52576;53.614;9.894;2023-03-23T04:00:54;18.73;;;13.88;;
21780;SDS011;52576;53.614;9.894;2023-03-23T04:03:03;18.48;;;13.38;;
21780;SDS011;52576;53.614;9.894;2023-03-23T04:05:17;17.38;;;12.55;;
21780;SDS011;52576;53.614;9.894;2023-03-23T04:07:23;19.15;;;13.85;;
21780;SDS011;52576;53.614;9.894;2023-03-23T04:09:27;16.73;;;12.30;;
21780;SDS011;52576;53.614;9.894;2023-03-23T04:11:34;14.98;;;11.98;;
21780;SDS011;52576;53.614;9.894;2023-03-23T04:14:09;14.77;;;12.05;;
21780;SDS011;52576;53.614;9.894;2023-03-23T04:16:17;17.95;;;12.88;;
21780;SDS011;52576;53.614;9.894;2023-03-23T04:18:20;17.88;;;12.05;;
21780;SDS011;52576;53.614;9.894;2023-03-23T04:20:23;16.00;;;12.55;;
21780;SDS011;52576;53.614;9.894;2023-03-23T04:22:28;18.15;;;13.00;;
21780;SDS011;52576;53.614;9.894;2023-03-23T04:24:33;19.23;;;13.02;;
21780;SDS011;52576;53.614;9.894;2023-03-23T04:26:40;18.05;;;12.25;;
21780;SDS011;52576;53.614;9.894;2023-03-23T04:28:53;19.13;;;13.38;;
21780;SDS011;52576;53.614;9.894;2023-03-23T04:31:16;17.33;;;12.20;;
21780;SDS011;52576;53.614;9.894;2023-03-23T04:33:24;18.23;;;12.57;;
21780;SDS011;52576;53.614;9.894;2023-03-23T04:35:28;17.55;;;13.10;;
21780;SDS011;52576;53.614;9.894;2023-03-23T04:37:54;19.65;;;12.68;;
21780;SDS011;52576;53.614;9.894;2023-03-23T04:39:57;19.35;;;13.52;;
21780;SDS011;52576;53.614;9.894;2023-03-23T04:42:05;19.45;;;13.10;;
21780;SDS011;52576;53.614;9.894;2023-03-23T04:44:26;16.55;;;12.27;;
21780;SDS011;52576;53.614;9.894;2023-03-23T04:46:39;18.63;;;13.43;;
21780;SDS011;52576;53.614;9.894;2023-03-23T04:48:44;18.15;;;13.05;;
21780;SDS011;52576;53.614;9.894;2023-03-23T04:50:53;14.88;;;12.73;;
21780;SDS011;52576;53.614;9.894;2023-03-23T04:53:02;18.95;;;12.50;;
21780;SDS011;52576;53.614;9.894;2023-03-23T04:55:06;16.75;;;12.55;;
21780;SDS011;52576;53.614;9.894;2023-03-23T04:57:13;19.17;;;12.32;;
21780;SDS011;52576;53.614;9.894;2023-03-23T04:59:23;15.38;;;12.18;;
21780;SDS011;52576;53.614;9.894;2023-03-23T05:01:48;15.65;;;11.98;;
21780;SDS011;52576;53.614;9.894;2023-03-23T05:03:52;16.65;;;12.00;;
21780;SDS011;52576;53.614;9.894;2023-03-23T05:05:55;19.15;;;12.43;;
21780;SDS011;52576;53.614;9.894;2023-03-23T05:07:58;24.92;;;13.07;;
21780;SDS011;52576;53.614;9.894;2023-03-23T05:10:04;13.23;;;11.70;;
21780;SDS011;52576;53.614;9.894;2023-03-23T05:12:09;15.57;;;12.15;;
21780;SDS011;52576;53.614;9.894;2023-03-23T05:14:39;18.88;;;12.75;;
21780;SDS011;52576;53.614;9.894;2023-03-23T05:16:45;19.98;;;12.57;;
21780;SDS011;52576;53.614;9.894;2023-03-23T05:18:51;19.67;;;12.68;;
21780;SDS011;52576;53.614;9.894;2023-03-23T05:20:54;16.75;;;12.95;;
21780;SDS011;52576;53.614;9.894;2023-03-23T05:22:58;21.40;;;13.30;;
21780;SDS011;52576;53.614;9.894;2023-03-23T05:25:04;17.65;;;13.60;;
21780;SDS011;52576;53.614;9.894;2023-03-23T05:27:12;18.35;;;12.75;;
21780;SDS011;52576;53.614;9.894;2023-03-23T05:29:21;18.65;;;12.68;;
21780;SDS011;52576;53.614;9.894;2023-03-23T05:31:34;17.83;;;12.65;;
21780;SDS011;52576;53.614;9.894;2023-03-23T05:33:36;17.48;;;12.63;;
21780;SDS011;52576;53.614;9.894;2023-03-23T05:35:50;19.55;;;12.93;;
21780;SDS011;52576;53.614;9.894;2023-03-23T05:37:59;18.58;;;12.38;;
21780;SDS011;52576;53.614;9.894;2023-03-23T05:40:03;15.30;;;12.63;;
21780;SDS011;52576;53.614;9.894;2023-03-23T05:42:06;14.88;;;11.48;;
21780;SDS011;52576;53.614;9.894;2023-03-23T05:44:19;14.07;;;11.85;;
21780;SDS011;52576;53.614;9.894;2023-03-23T05:46:26;17.23;;;12.10;;
21780;SDS011;52576;53.614;9.894;2023-03-23T05:48:33;16.00;;;12.02;;
21780;SDS011;52576;53.614;9.894;2023-03-23T05:50:36;17.60;;;12.10;;
21780;SDS011;52576;53.614;9.894;2023-03-23T05:52:39;16.20;;;11.63;;
21780;SDS011;52576;53.614;9.894;2023-03-23T05:54:45;12.85;;;11.15;;
21780;SDS011;52576;53.614;9.894;2023-03-23T05:56:47;15.48;;;11.38;;
21780;SDS011;52576;53.614;9.894;2023-03-23T05:59:05;16.10;;;11.82;;
21780;SDS011;52576;53.614;9.894;2023-03-23T06:01:10;17.50;;;11.35;;
21780;SDS011;52576;53.614;9.894;2023-03-23T06:03:14;21.58;;;11.43;;
21780;SDS011;52576;53.614;9.894;2023-03-23T06:05:25;14.93;;;10.40;;
21780;SDS011;52576;53.614;9.894;2023-03-23T06:07:29;13.48;;;10.73;;
21780;SDS011;52576;53.614;9.894;2023-03-23T06:09:38;13.63;;;10.27;;
21780;SDS011;52576;53.614;9.894;2023-03-23T06:11:58;19.17;;;10.27;;
21780;SDS011;52576;53.614;9.894;2023-03-23T06:14:14;15.40;;;10.50;;
21780;SDS011;52576;53.614;9.894;2023-03-23T06:16:18;12.40;;;9.77;;
21780;SDS011;52576;53.614;9.894;2023-03-23T06:18:30;14.10;;;10.00;;
21780;SDS011;52576;53.614;9.894;2023-03-23T06:20:53;13.10;;;9.37;;
21780;SDS011;52576;53.614;9.894;2023-03-23T06:23:21;14.60;;;8.98;;
21780;SDS011;52576;53.614;9.894;2023-03-23T06:25:24;12.55;;;9.32;;
21780;SDS011;52576;53.614;9.894;2023-03-23T06:27:26;14.60;;;10.27;;
21780;SDS011;52576;53.614;9.894;2023-03-23T06:29:29;12.25;;;9.07;;
21780;SDS011;52576;53.614;9.894;2023-03-23T06:31:32;12.70;;;8.85;;
21780;SDS011;52576;53.614;9.894;2023-03-23T06:33:37;13.30;;;9.10;;
21780;SDS011;52576;53.614;9.894;2023-03-23T06:36:04;13.23;;;8.90;;
21780;SDS011;52576;53.614;9.894;2023-03-23T06:40:29;12.52;;;7.93;;
21780;SDS011;52576;53.614;9.894;2023-03-23T06:42:31;10.15;;;7.43;;
21780;SDS011;52576;53.614;9.894;2023-03-23T06:45:00;11.65;;;7.28;;
21780;SDS011;52576;53.614;9.894;2023-03-23T06:47:04;13.65;;;7.43;;
21780;SDS011;52576;53.614;9.894;2023-03-23T06:49:11;9.70;;;6.07;;
21780;SDS011;52576;53.614;9.894;2023-03-23T06:51:23;10.88;;;6.53;;
21780;SDS011;52576;53.614;9.894;2023-03-23T06:53:27;8.15;;;5.80;;
21780;SDS011;52576;53.614;9.894;2023-03-23T06:55:32;11.40;;;6.28;;
21780;SDS011;52576;53.614;9.894;2023-03-23T06:57:38;9.70;;;6.00;;
21780;SDS011;52576;53.614;9.894;2023-03-23T06:59:41;8.70;;;5.82;;
21780;SDS011;52576;53.614;9.894;2023-03-23T07:01:44;8.38;;;5.55;;
21780;SDS011;52576;53.614;9.894;2023-03-23T07:03:47;10.15;;;5.93;;
21780;SDS011;52576;53.614;9.894;2023-03-23T07:05:55;9.60;;;5.05;;
21780;SDS011;52576;53.614;9.894;2023-03-23T07:08:02;14.25;;;5.50;;
21780;SDS011;52576;53.614;9.894;2023-03-23T07:10:10;8.85;;;5.10;;
21780;SDS011;52576;53.614;9.894;2023-03-23T07:12:13;9.18;;;5.13;;
21780;SDS011;52576;53.614;9.894;2023-03-23T07:14:20;10.88;;;5.43;;
21780;SDS011;52576;53.614;9.894;2023-03-23T07:16:24;9.70;;;5.13;;
21780;SDS011;52576;53.614;9.894;2023-03-23T07:18:27;8.38;;;4.50;;
21780;SDS011;52576;53.614;9.894;2023-03-23T07:20:32;7.80;;;5.00;;
21780;SDS011;52576;53.614;9.894;2023-03-23T07:22:35;8.00;;;4.57;;
21780;SDS011;52576;53.614;9.894;2023-03-23T07:24:51;7.35;;;4.57;;
21780;SDS011;52576;53.614;9.894;2023-03-23T07:27:00;5.80;;;4.13;;
21780;SDS011;52576;53.614;9.894;2023-03-23T07:29:04;7.70;;;4.60;;
21780;SDS011;52576;53.614;9.894;2023-03-23T07:31:11;10.48;;;4.50;;
21780;SDS011;52576;53.614;9.894;2023-03-23T07:33:14;6.93;;;3.97;;
21780;SDS011;52576;53.614;9.894;2023-03-23T07:35:16;9.00;;;4.05;;
21780;SDS011;52576;53.614;9.894;2023-03-23T07:37:32;8.43;;;4.28;;
21780;SDS011;52576;53.614;9.894;2023-03-23T07:39:36;8.10;;;4.45;;
21780;SDS011;52576;53.614;9.894;2023-03-23T07:41:40;8.23;;;4.30;;
21780;SDS011;52576;53.614;9.894;2023-03-23T07:43:51;7.75;;;4.35;;
21780;SDS011;52576;53.614;9.894;2023-03-23T07:46:04;8.57;;;4.72;;
21780;SDS011;52576;53.614;9.894;2023-03-23T07:48:17;9.88;;;5.20;;
21780;SDS011;52576;53.614;9.894;2023-03-23T07:50:20;9.70;;;4.55;;
21780;SDS011;52576;53.614;9.894;2023-03-23T07:52:25;11.07;;;5.53;;
21780;SDS011;52576;53.614;9.894;2023-03-23T07:54:27;13.18;;;6.20;;
21780;SDS011;52576;53.614;9.894;2023-03-23T07:56:41;11.90;;;5.78;;
21780;SDS011;52576;53.614;9.894;2023-03-23T07:58:52;11.32;;;6.10;;
21780;SDS011;52576;53.614;9.894;2023-03-23T08:00:54;11.40;;;6.82;;
21780;SDS011;52576;53.614;9.894;2023-03-23T08:03:00;19.63;;;6.88;;
21780;SDS011;52576;53.614;9.894;2023-03-23T08:05:09;6.90;;;4.28;;
21780;SDS011;52576;53.614;9.894;2023-03-23T08:07:25;7.70;;;2.90;;
21780;SDS011;52576;53.614;9.894;2023-03-23T08:09:27;4.70;;;2.13;;
21780;SDS011;52576;53.614;9.894;2023-03-23T08:11:46;6.15;;;1.90;;
21780;SDS011;52576;53.614;9.894;2023-03-23T08:14:09;2.35;;;1.27;;
21780;SDS011;52576;53.614;9.894;2023-03-23T08:16:14;4.22;;;1.40;;
21780;SDS011;52576;53.614;9.894;2023-03-23T08:18:29;3.22;;;1.35;;
21780;SDS011;52576;53.614;9.894;2023-03-23T08:21:04;3.97;;;1.20;;
21780;SDS011;52576;53.614;9.894;2023-03-23T08:23:35;2.58;;;1.20;;
21780;SDS011;52576;53.614;9.894;2023-03-23T08:25:38;2.00;;;1.20;;
21780;SDS011;52576;53.614;9.894;2023-03-23T08:27:51;5.30;;;1.60;;
21780;SDS011;52576;53.614;9.894;2023-03-23T08:30:15;3.35;;;1.65;;
21780;SDS011;52576;53.614;9.894;2023-03-23T08:32:42;5.28;;;2.08;;
21780;SDS011;52576;53.614;9.894;2023-03-23T08:35:07;4.63;;;1.80;;
21780;SDS011;52576;53.614;9.894;2023-03-23T08:37:29;9.25;;;2.25;;
21780;SDS011;52576;53.614;9.894;2023-03-23T08:39:51;5.32;;;2.55;;
21780;SDS011;52576;53.614;9.894;2023-03-23T08:42:11;7.82;;;2.00;;
21780;SDS011;52576;53.614;9.894;2023-03-23T08:44:38;6.38;;;2.30;;
21780;SDS011;52576;53.614;9.894;2023-03-23T08:47:02;9.60;;;2.20;;
21780;SDS011;52576;53.614;9.894;2023-03-23T08:49:25;9.40;;;2.33;;
21780;SDS011;52576;53.614;9.894;2023-03-23T08:51:53;6.95;;;2.30;;
21780;SDS011;52576;53.614;9.894;2023-03-23T08:54:10;6.65;;;1.85;;
21780;SDS011;52576;53.614;9.894;2023-03-23T08:56:39;7.35;;;2.30;;
21780;SDS011;52576;53.614;9.894;2023-03-23T08:58:58;4.72;;;2.10;;
21780;SDS011;52576;53.614;9.894;2023-03-23T09:01:22;7.88;;;2.33;;
21780;SDS011;52576;53.614;9.894;2023-03-23T09:03:37;6.38;;;2.28;;
21780;SDS011;52576;53.614;9.894;2023-03-23T09:06:02;6.63;;;2.58;;
21780;SDS011;52576;53.614;9.894;2023-03-23T09:08:19;8.48;;;2.83;;
21780;SDS011;52576;53.614;9.894;2023-03-23T09:10:22;11.18;;;2.67;;
21780;SDS011;52576;53.614;9.894;2023-03-23T09:12:25;6.32;;;3.17;;
21780;SDS011;52576;53.614;9.894;2023-03-23T09:14:27;8.88;;;2.83;;
21780;SDS011;52576;53.614;9.894;2023-03-23T09:16:31;16.42;;;3.20;;
21780;SDS011;52576;53.614;9.894;2023-03-23T09:18:34;8.18;;;2.70;;
21780;SDS011;52576;53.614;9.894;2023-03-23T09:20:36;10.80;;;3.10;;
21780;SDS011;52576;53.614;9.894;2023-03-23T09:22:39;9.93;;;3.40;;
21780;SDS011;52576;53.614;9.894;2023-03-23T09:24:44;9.07;;;2.80;;
21780;SDS011;52576;53.614;9.894;2023-03-23T09:26:46;10.57;;;2.80;;
21780;SDS011;52576;53.614;9.894;2023-03-23T09:28:49;7.57;;;2.90;;
21780;SDS011;52576;53.614;9.894;2023-03-23T09:30:54;9.68;;;2.83;;
21780;SDS011;52576;53.614;9.894;2023-03-23T09:32:59;7.72;;;2.53;;
21780;SDS011;52576;53.614;9.894;2023-03-23T09:35:03;10.55;;;2.90;;
21780;SDS011;52576;53.614;9.894;2023-03-23T09:37:08;12.98;;;2.72;;
21780;SDS011;52576;53.614;9.894;2023-03-23T09:39:13;8.30;;;2.40;;
21780;SDS011;52576;53.614;9.894;2023-03-23T09:41:20;10.23;;;2.67;;
21780;SDS011;52576;53.614;9.894;2023-03-23T09:43:39;11.98;;;2.30;;
21780;SDS011;52576;53.614;9.894;2023-03-23T09:45:52;9.82;;;2.42;;
21780;SDS011;52576;53.614;9.894;2023-03-23T09:50:34;14.38;;;2.70;;
21780;SDS011;52576;53.614;9.894;2023-03-23T09:52:40;15.38;;;2.67;;
21780;SDS011;52576;53.614;9.894;2023-03-23T09:54:48;12.02;;;2.88;;
21780;SDS011;52576;53.614;9.894;2023-03-23T09:56:52;18.15;;;3.25;;
21780;SDS011;52576;53.614;9.894;2023-03-23T09:58:57;13.90;;;2.72;;
21780;SDS011;52576;53.614;9.894;2023-03-23T10:01:03;12.25;;;2.80;;
21780;SDS011;52576;53.614;9.894;2023-03-23T10:03:14;13.18;;;2.10;;
21780;SDS011;52576;53.614;9.894;2023-03-23T10:05:23;8.85;;;2.58;;
21780;SDS011;52576;53.614;9.894;2023-03-23T10:07:31;11.05;;;2.53;;
21780;SDS011;52576;53.614;9.894;2023-03-23T10:09:33;15.80;;;2.60;;
21780;SDS011;52576;53.614;9.894;2023-03-23T10:11:40;17.25;;;2.90;;
21780;SDS011;52576;53.614;9.894;2023-03-23T10:13:54;13.50;;;2.60;;
21780;SDS011;52576;53.614;9.894;2023-03-23T10:16:08;11.00;;;2.10;;
21780;SDS011;52576;53.614;9.894;2023-03-23T10:18:15;13.00;;;2.65;;
21780;SDS011;52576;53.614;9.894;2023-03-23T10:20:23;9.68;;;2.38;;
21780;SDS011;52576;53.614;9.894;2023-03-23T10:22:32;12.07;;;2.80;;
21780;SDS011;52576;53.614;9.894;2023-03-23T10:24:39;15.45;;;2.30;;
21780;SDS011;52576;53.614;9.894;2023-03-23T10:26:48;11.48;;;2.20;;
21780;SDS011;52576;53.614;9.894;2023-03-23T10:28:58;14.00;;;2.70;;
21780;SDS011;52576;53.614;9.894;2023-03-23T10:31:03;15.07;;;2.92;;
21780;SDS011;52576;53.614;9.894;2023-03-23T10:33:12;15.07;;;3.22;;
21780;SDS011;52576;53.614;9.894;2023-03-23T10:35:21;15.90;;;2.70;;
21780;SDS011;52576;53.614;9.894;2023-03-23T10:37:29;14.05;;;2.83;;
21780;SDS011;52576;53.614;9.894;2023-03-23T10:39:37;12.00;;;2.83;;
21780;SDS011;52576;53.614;9.894;2023-03-23T10:41:46;17.83;;;3.10;;
21780;SDS011;52576;53.614;9.894;2023-03-23T10:43:48;10.90;;;2.67;;
21780;SDS011;52576;53.614;9.894;2023-03-23T10:45:54;13.95;;;2.83;;
21780;SDS011;52576;53.614;9.894;2023-03-23T10:48:05;14.47;;;3.00;;
21780;SDS011;52576;53.614;9.894;2023-03-23T10:50:15;11.20;;;2.40;;
21780;SDS011;52576;53.614;9.894;2023-03-23T10:52:29;12.13;;;2.30;;
21780;SDS011;52576;53.614;9.894;2023-03-23T10:54:36;9.90;;;2.30;;
21780;SDS011;52576;53.614;9.894;2023-03-23T10:56:40;15.32;;;2.70;;
21780;SDS011;52576;53.614;9.894;2023-03-23T10:58:44;13.30;;;2.60;;
21780;SDS011;52576;53.614;9.894;2023-03-23T11:00:46;13.43;;;3.22;;
21780;SDS011;52576;53.614;9.894;2023-03-23T11:02:56;13.90;;;2.72;;
21780;SDS011;52576;53.614;9.894;2023-03-23T11:05:01;13.48;;;2.95;;
21780;SDS011;52576;53.614;9.894;2023-03-23T11:07:13;11.27;;;2.58;;
21780;SDS011;52576;53.614;9.894;2023-03-23T11:09:21;12.18;;;2.70;;
21780;SDS011;52576;53.614;9.894;2023-03-23T11:11:37;14.73;;;2.70;;
21780;SDS011;52576;53.614;9.894;2023-03-23T11:13:43;16.15;;;3.13;;
21780;SDS011;52576;53.614;9.894;2023-03-23T11:15:47;18.02;;;3.30;;
21780;SDS011;52576;53.614;9.894;2023-03-23T11:18:01;13.60;;;2.83;;
21780;SDS011;52576;53.614;9.894;2023-03-23T11:20:09;17.60;;;2.97;;
21780;SDS011;52576;53.614;9.894;2023-03-23T11:22:15;14.65;;;2.80;;
21780;SDS011;52576;53.614;9.894;2023-03-23T11:24:22;12.48;;;3.05;;
21780;SDS011;52576;53.614;9.894;2023-03-23T11:26:27;18.80;;;3.83;;
21780;SDS011;52576;53.614;9.894;2023-03-23T11:28:32;17.33;;;3.00;;
21780;SDS011;52576;53.614;9.894;2023-03-23T11:30:37;18.13;;;3.40;;
21780;SDS011;52576;53.614;9.894;2023-03-23T11:32:42;18.20;;;3.03;;
21780;SDS011;52576;53.614;9.894;2023-03-23T11:34:47;17.60;;;3.38;;
21780;SDS011;52576;53.614;9.894;2023-03-23T11:36:53;14.23;;;2.85;;
21780;SDS011;52576;53.614;9.894;2023-03-23T11:39:01;16.73;;;3.40;;
21780;SDS011;52576;53.614;9.894;2023-03-23T11:41:08;16.30;;;2.92;;
21780;SDS011;52576;53.614;9.894;2023-03-23T11:43:13;14.52;;;2.60;;
21780;SDS011;52576;53.614;9.894;2023-03-23T11:45:20;14.60;;;3.05;;
21780;SDS011;52576;53.614;9.894;2023-03-23T11:47:24;16.10;;;3.42;;
21780;SDS011;52576;53.614;9.894;2023-03-23T11:49:39;17.27;;;3.53;;
21780;SDS011;52576;53.614;9.894;2023-03-23T11:51:49;15.48;;;2.95;;
21780;SDS011;52576;53.614;9.894;2023-03-23T11:53:55;15.93;;;2.95;;
21780;SDS011;52576;53.614;9.894;2023-03-23T11:56:08;14.05;;;3.22;;
21780;SDS011;52576;53.614;9.894;2023-03-23T11:58:16;14.23;;;3.17;;
21780;SDS011;52576;53.614;9.894;2023-03-23T12:00:20;18.88;;;3.53;;
21780;SDS011;52576;53.614;9.894;2023-03-23T12:02:35;14.18;;;3.42;;
21780;SDS011;52576;53.614;9.894;2023-03-23T12:05:29;13.70;;;3.35;;
21780;SDS011;52576;53.614;9.894;2023-03-23T12:07:38;21.67;;;3.40;;
21780;SDS011;52576;53.614;9.894;2023-03-23T12:09:57;25.60;;;4.00;;
21780;SDS011;52576;53.614;9.894;2023-03-23T12:12:09;17.05;;;3.30;;
21780;SDS011;52576;53.614;9.894;2023-03-23T12:14:19;11.65;;;2.42;;
21780;SDS011;52576;53.614;9.894;2023-03-23T12:16:30;12.93;;;2.60;;
21780;SDS011;52576;53.614;9.894;2023-03-23T12:18:44;17.80;;;4.43;;
21780;SDS011;52576;53.614;9.894;2023-03-23T12:20:59;20.17;;;3.35;;
21780;SDS011;52576;53.614;9.894;2023-03-23T12:23:11;13.40;;;2.53;;
21780;SDS011;52576;53.614;9.894;2023-03-23T12:28:11;10.38;;;2.38;;
21780;SDS011;52576;53.614;9.894;2023-03-23T12:30:27;16.83;;;3.03;;
21780;SDS011;52576;53.614;9.894;2023-03-23T12:32:40;15.20;;;2.85;;
21780;SDS011;52576;53.614;9.894;2023-03-23T12:34:52;13.93;;;2.88;;
21780;SDS011;52576;53.614;9.894;2023-03-23T12:37:04;13.48;;;2.97;;
21780;SDS011;52576;53.614;9.894;2023-03-23T12:41:51;11.98;;;3.20;;
21780;SDS011;52576;53.614;9.894;2023-03-23T12:44:03;11.98;;;2.80;;
21780;SDS011;52576;53.614;9.894;2023-03-23T12:46:14;10.90;;;2.70;;
21780;SDS011;52576;53.614;9.894;2023-03-23T12:48:26;12.07;;;3.00;;
21780;SDS011;52576;53.614;9.894;2023-03-23T12:50:32;12.50;;;3.00;;
21780;SDS011;52576;53.614;9.894;2023-03-23T12:52:42;14.18;;;3.15;;
21780;SDS011;52576;53.614;9.894;2023-03-23T12:54:50;11.90;;;3.30;;
21780;SDS011;52576;53.614;9.894;2023-03-23T12:56:59;18.35;;;4.22;;